createdAt,value
2024-02-26T00:00:26.539Z,7.26
2024-02-26T00:03:23.649Z,7.24
2024-02-26T00:05:56.797Z,7.28
2024-02-26T00:08:29.107Z,7.22
2024-02-26T00:11:01.076Z,7.17
2024-02-26T00:13:33.357Z,7.10
2024-02-26T00:16:05.340Z,7.21
2024-02-26T00:18:40.293Z,7.16
2024-02-26T00:21:12.494Z,7.13
2024-02-26T00:23:44.908Z,6.68
2024-02-26T00:26:17.134Z,7.04
2024-02-26T00:28:49.414Z,6.85
2024-02-26T00:31:21.229Z,7.06
2024-02-26T00:33:56.318Z,7.21
2024-02-26T00:36:28.411Z,7.27
2024-02-26T00:39:00.861Z,7.18
2024-02-26T00:41:32.720Z,7.03
2024-02-26T00:44:05.074Z,7.15
2024-02-26T00:46:37.343Z,7.15
2024-02-26T00:49:12.793Z,6.82
2024-02-26T00:51:45.083Z,6.80
2024-02-26T00:54:40.214Z,6.96
2024-02-26T00:57:13.359Z,6.85
2024-02-26T00:59:45.856Z,7.19
2024-02-26T01:02:17.812Z,7.19
2024-02-26T01:04:52.875Z,7.27
2024-02-26T01:07:25.012Z,7.16
2024-02-26T01:09:57.295Z,7.19
2024-02-26T01:12:29.762Z,7.25
2024-02-26T01:15:02.475Z,7.14
2024-02-26T01:17:34.907Z,6.84
2024-02-26T01:20:11.336Z,6.70
2024-02-26T01:22:43.155Z,6.65
2024-02-26T01:25:15.533Z,6.65
2024-02-26T01:27:47.354Z,6.81
2024-02-26T01:30:20.288Z,6.44
2024-02-26T01:32:52.378Z,6.92
2024-02-26T01:35:27.813Z,6.47
2024-02-26T01:38:00.360Z,6.97
2024-02-26T01:40:32.701Z,6.96
2024-02-26T01:43:04.860Z,7.12
2024-02-26T01:45:36.951Z,6.99
2024-02-26T01:48:10.010Z,6.86
2024-02-26T01:50:45.358Z,6.58
2024-02-26T01:53:17.657Z,6.71
2024-02-26T01:55:50.505Z,6.68
2024-02-26T01:58:23.274Z,6.79
2024-02-26T02:00:55.755Z,6.76
2024-02-26T02:03:28.428Z,6.74
2024-02-26T02:06:03.588Z,6.71
2024-02-26T02:08:36.581Z,6.65
2024-02-26T02:11:08.992Z,6.63
2024-02-26T02:13:41.159Z,6.63
2024-02-26T02:16:13.759Z,6.59
2024-02-26T02:18:45.569Z,6.48
2024-02-26T02:21:20.481Z,6.39
2024-02-26T02:23:52.090Z,6.49
2024-02-26T02:26:24.677Z,6.43
2024-02-26T02:28:57.415Z,6.43
2024-02-26T02:31:29.659Z,6.41
2024-02-26T02:34:02.190Z,6.42
2024-02-26T02:36:37.827Z,6.38
2024-02-26T02:39:09.718Z,6.25
2024-02-26T02:41:41.626Z,5.88
2024-02-26T02:44:13.218Z,5.65
2024-02-26T02:46:45.068Z,5.63
2024-02-26T02:49:17.658Z,5.59
2024-02-26T02:51:52.234Z,5.90
2024-02-26T02:57:16.131Z,5.83
2024-02-26T02:59:48.195Z,6.12
2024-02-26T03:02:19.994Z,6.64
2024-02-26T03:04:51.942Z,6.28
2024-02-26T03:07:26.581Z,6.26
2024-02-26T03:10:01.716Z,6.63
2024-02-26T03:12:34.731Z,6.53
2024-02-26T03:15:06.764Z,6.53
2024-02-26T03:17:38.904Z,6.19
2024-02-26T03:20:12.684Z,6.73
2024-02-26T03:22:47.191Z,6.35
2024-02-26T03:25:18.860Z,6.32
2024-02-26T03:27:51.563Z,6.77
2024-02-26T03:30:23.181Z,6.76
2024-02-26T03:32:55.604Z,6.76
2024-02-26T03:35:27.161Z,7.05
2024-02-26T03:38:01.674Z,6.48
2024-02-26T03:40:34.111Z,6.66
2024-02-26T03:43:08.758Z,6.50
2024-02-26T03:45:40.503Z,6.68
2024-02-26T03:48:12.885Z,6.52
2024-02-26T03:50:48.781Z,6.63
2024-02-26T03:53:27.172Z,6.32
2024-02-26T03:55:58.774Z,6.37
2024-02-26T03:58:30.697Z,6.27
2024-02-26T04:01:04.979Z,6.39
2024-02-26T04:03:40.482Z,6.32
2024-02-26T04:06:15.805Z,6.15
2024-02-26T04:08:50.381Z,6.10
2024-02-26T04:11:23.492Z,6.12
2024-02-26T04:13:55.881Z,6.14
2024-02-26T04:16:27.544Z,6.15
2024-02-26T04:18:59.490Z,6.39
2024-02-26T04:21:31.325Z,6.66
2024-02-26T04:24:06.737Z,6.65
2024-02-26T04:26:39.494Z,6.67
2024-02-26T04:29:11.776Z,6.86
2024-02-26T04:31:44.292Z,6.68
2024-02-26T04:34:16.533Z,6.38
2024-02-26T04:36:49.365Z,6.47
2024-02-26T04:39:25.055Z,6.36
2024-02-26T04:41:57.034Z,6.51
2024-02-26T04:44:29.332Z,6.49
2024-02-26T04:47:03.227Z,6.40
2024-02-26T04:49:35.501Z,6.44
2024-02-26T04:52:18.041Z,6.47
2024-02-26T04:54:56.174Z,6.30
2024-02-26T04:57:28.222Z,6.09
2024-02-26T05:00:00.498Z,5.90
2024-02-26T05:02:34.816Z,6.17
2024-02-26T05:05:11.629Z,5.91
2024-02-26T05:07:47.006Z,5.93
2024-02-26T05:10:21.916Z,5.64
2024-02-26T05:12:53.735Z,6.33
2024-02-26T05:15:25.628Z,6.27
2024-02-26T05:17:57.205Z,6.05
2024-02-26T05:20:29.294Z,6.22
2024-02-26T05:25:50.174Z,6.23
2024-02-26T05:28:22.025Z,6.27
2024-02-26T05:30:54.735Z,6.21
2024-02-26T05:33:26.769Z,6.20
2024-02-26T05:36:05.498Z,6.33
2024-02-26T05:38:37.269Z,6.25
2024-02-26T05:41:12.134Z,6.24
2024-02-26T05:43:43.849Z,6.17
2024-02-26T05:46:16.924Z,6.17
2024-02-26T05:48:48.684Z,6.24
2024-02-26T05:51:20.926Z,6.16
2024-02-26T05:53:56.243Z,6.23
2024-02-26T05:56:31.343Z,6.31
2024-02-26T05:59:03.655Z,6.10
2024-02-26T06:01:35.653Z,6.12
2024-02-26T06:04:07.600Z,6.18
2024-02-26T06:06:42.632Z,6.15
2024-02-26T06:09:15.504Z,5.70
2024-02-26T06:11:50.025Z,5.94
2024-02-26T06:14:22.225Z,5.99
2024-02-26T06:16:54.116Z,6.11
2024-02-26T06:19:26.228Z,6.08
2024-02-26T06:22:07.295Z,6.20
2024-02-26T06:24:38.763Z,6.45
2024-02-26T06:27:13.932Z,6.20
2024-02-26T06:29:45.470Z,6.72
2024-02-26T06:32:18.395Z,6.70
2024-02-26T06:34:50.524Z,6.86
2024-02-26T06:37:23.524Z,6.98
2024-02-26T06:39:55.736Z,6.83
2024-02-26T06:42:30.910Z,6.55
2024-02-26T06:45:02.755Z,6.87
2024-02-26T06:47:37.425Z,7.08
2024-02-26T06:50:09.632Z,7.19
2024-02-26T06:52:45.891Z,7.66
2024-02-26T06:55:17.472Z,7.24
2024-02-26T06:57:52.512Z,7.12
2024-02-26T07:00:25.242Z,6.42
2024-02-26T07:02:57.666Z,6.51
2024-02-26T07:05:29.735Z,6.87
2024-02-26T07:08:05.332Z,7.27
2024-02-26T07:10:37.373Z,7.47
2024-02-26T07:13:13.906Z,7.49
2024-02-26T07:15:45.930Z,7.54
2024-02-26T07:18:18.300Z,7.80
2024-02-26T07:20:50.377Z,8.00
2024-02-26T07:26:09.811Z,7.29
2024-02-26T07:28:44.932Z,7.34
2024-02-26T07:31:18.753Z,7.51
2024-02-26T07:33:55.384Z,7.86
2024-02-26T07:36:29.249Z,7.67
2024-02-26T07:39:02.772Z,7.81
2024-02-26T07:41:34.752Z,7.98
2024-02-26T07:44:10.756Z,7.96
2024-02-26T07:46:42.951Z,8.02
2024-02-26T07:52:17.596Z,8.47
2024-02-26T08:02:05.180Z,9.39
2024-02-26T08:04:52.667Z,8.92
2024-02-26T08:07:27.745Z,8.58
2024-02-26T08:10:02.771Z,8.60
2024-02-26T08:12:38.193Z,9.33
2024-02-26T08:15:12.973Z,9.26
2024-02-26T08:17:49.344Z,9.13
2024-02-26T08:20:22.240Z,9.60
2024-02-26T08:22:55.529Z,9.92
2024-02-26T08:25:29.624Z,9.85
2024-02-26T08:28:03.256Z,9.69
2024-02-26T08:30:37.287Z,9.96
2024-02-26T08:33:16.232Z,10.17
2024-02-26T08:35:57.149Z,10.13
2024-02-26T08:38:30.546Z,10.63
2024-02-26T08:41:06.132Z,10.87
2024-02-26T08:43:39.387Z,10.98
2024-02-26T08:46:14.355Z,11.54
2024-02-26T08:48:51.179Z,11.60
2024-02-26T08:51:24.089Z,11.53
2024-02-26T08:53:57.141Z,11.84
2024-02-26T08:56:29.775Z,11.64
2024-02-26T08:59:05.506Z,12.11
2024-02-26T09:01:41.378Z,12.16
2024-02-26T09:04:45.964Z,13.41
2024-02-26T09:07:19.008Z,13.95
2024-02-26T09:09:54.583Z,14.62
2024-02-26T09:12:27.689Z,14.53
2024-02-26T09:15:00.379Z,15.24
2024-02-26T09:17:33.679Z,14.99
2024-02-26T09:20:10.954Z,15.99
2024-02-26T09:22:44.243Z,14.83
2024-02-26T09:25:18.578Z,14.41
2024-02-26T09:27:52.377Z,14.62
2024-02-26T09:30:27.012Z,14.48
2024-02-26T09:33:14.174Z,13.56
2024-02-26T09:35:49.540Z,14.20
2024-02-26T09:38:21.947Z,13.52
2024-02-26T09:40:56.090Z,14.23
2024-02-26T09:43:28.392Z,14.08
2024-02-26T09:46:04.017Z,14.33
2024-02-26T09:48:39.499Z,14.78
2024-02-26T09:51:17.444Z,15.39
2024-02-26T09:53:55.868Z,15.73
2024-02-26T09:56:28.709Z,15.51
2024-02-26T09:59:02.526Z,16.72
2024-02-26T10:01:40.907Z,15.73
2024-02-26T10:04:15.639Z,15.98
2024-02-26T10:06:52.350Z,16.70
2024-02-26T10:09:25.136Z,15.00
2024-02-26T10:11:59.575Z,16.99
2024-02-26T10:14:32.091Z,16.61
2024-02-26T10:17:06.399Z,18.02
2024-02-26T10:19:39.773Z,16.51
2024-02-26T10:22:15.561Z,16.90
2024-02-26T10:24:47.761Z,16.88
2024-02-26T10:27:20.909Z,17.78
2024-02-26T10:29:54.885Z,17.34
2024-02-26T10:32:28.169Z,18.20
2024-02-26T10:35:00.955Z,19.11
2024-02-26T10:37:36.145Z,19.21
2024-02-26T10:40:10.720Z,18.36
2024-02-26T10:42:43.907Z,20.02
2024-02-26T10:45:17.074Z,18.73
2024-02-26T10:47:51.646Z,18.71
2024-02-26T10:50:26.760Z,17.04
2024-02-26T10:53:05.752Z,17.87
2024-02-26T10:55:39.676Z,20.00
2024-02-26T10:58:13.678Z,19.58
2024-02-26T11:00:50.982Z,18.94
2024-02-26T11:03:25.144Z,18.05
2024-02-26T11:05:58.107Z,18.24
2024-02-26T11:08:37.050Z,18.72
2024-02-26T11:11:14.640Z,18.53
2024-02-26T11:13:52.836Z,19.33
2024-02-26T11:16:26.388Z,17.82
2024-02-26T11:19:02.454Z,19.06
2024-02-26T11:21:40.155Z,18.83
2024-02-26T11:24:20.022Z,18.09
2024-02-26T11:27:00.685Z,17.83
2024-02-26T11:29:39.289Z,17.59
2024-02-26T11:32:15.878Z,17.81
2024-02-26T11:34:50.612Z,17.12
2024-02-26T11:37:24.229Z,17.52
2024-02-26T11:39:59.891Z,16.65
2024-02-26T11:42:36.857Z,16.95
2024-02-26T11:45:47.470Z,17.38
2024-02-26T11:48:21.158Z,16.61
2024-02-26T11:50:55.679Z,17.17
2024-02-26T11:53:42.130Z,16.21
2024-02-26T11:56:39.498Z,17.15
2024-02-26T11:59:15.394Z,16.48
2024-02-26T12:01:51.209Z,16.92
2024-02-26T12:04:27.161Z,16.07
2024-02-26T12:07:01.925Z,15.36
2024-02-26T12:09:41.616Z,15.63
2024-02-26T12:12:28.323Z,16.14
2024-02-26T12:15:02.197Z,16.42
2024-02-26T12:17:37.240Z,16.09
2024-02-26T12:20:17.513Z,15.54
2024-02-26T12:22:51.659Z,14.57
2024-02-26T12:25:28.101Z,15.63
2024-02-26T12:28:04.721Z,15.95
2024-02-26T12:30:38.338Z,16.58
2024-02-26T12:33:15.857Z,16.10
2024-02-26T12:35:51.951Z,14.80
2024-02-26T12:38:25.705Z,15.57
2024-02-26T12:41:00.829Z,14.65
2024-02-26T12:43:36.418Z,14.13
2024-02-26T12:46:11.413Z,15.07
2024-02-26T12:48:44.157Z,14.54
2024-02-26T12:51:18.732Z,14.64
2024-02-26T12:56:45.749Z,14.76
2024-02-26T12:59:21.093Z,14.33
2024-02-26T13:01:59.215Z,14.74
2024-02-26T13:04:35.661Z,14.61
2024-02-26T13:07:12.353Z,14.38
2024-02-26T13:09:47.737Z,14.89
2024-02-26T13:12:37.089Z,15.29
2024-02-26T13:15:18.755Z,15.22
2024-02-26T13:17:53.388Z,15.16
2024-02-26T13:20:33.631Z,14.74
2024-02-26T13:23:07.622Z,15.04
2024-02-26T13:25:44.107Z,15.02
2024-02-26T13:28:22.313Z,14.62
2024-02-26T13:31:09.533Z,14.72
2024-02-26T13:33:46.431Z,14.39
2024-02-26T13:36:21.169Z,15.17
2024-02-26T13:39:00.392Z,14.65
2024-02-26T13:41:38.236Z,14.73
2024-02-26T13:44:15.053Z,15.09
2024-02-26T13:46:52.380Z,15.20
2024-02-26T13:49:25.254Z,15.18
2024-02-26T13:52:02.057Z,14.56
2024-02-26T13:54:36.911Z,14.84
2024-02-26T13:57:12.154Z,14.57
2024-02-26T13:59:44.940Z,14.31
2024-02-26T14:02:25.167Z,14.52
2024-02-26T14:04:57.708Z,14.43
2024-02-26T14:07:31.794Z,14.53
2024-02-26T14:10:07.611Z,14.43
2024-02-26T14:12:40.800Z,14.02
2024-02-26T14:15:15.179Z,14.16
2024-02-26T14:17:56.042Z,13.78
2024-02-26T14:20:30.912Z,14.29
2024-02-26T14:23:04.470Z,13.66
2024-02-26T14:25:45.074Z,14.02
2024-02-26T14:28:29.223Z,13.20
2024-02-26T14:31:13.801Z,13.94
2024-02-26T14:33:56.476Z,13.72
2024-02-26T14:36:29.690Z,13.37
2024-02-26T14:39:02.815Z,13.20
2024-02-26T14:41:35.631Z,13.76
2024-02-26T14:44:08.831Z,13.27
2024-02-26T14:46:41.587Z,14.11
2024-02-26T14:49:17.440Z,13.90
2024-02-26T14:51:50.353Z,13.25
2024-02-26T14:54:23.386Z,13.55
2024-02-26T14:56:56.586Z,13.35
2024-02-26T14:59:29.666Z,13.36
2024-02-26T15:02:04.385Z,13.21
2024-02-26T15:04:59.736Z,13.35
2024-02-26T15:07:33.171Z,13.61
2024-02-26T15:10:05.947Z,14.06
2024-02-26T15:12:39.362Z,13.83
2024-02-26T15:15:13.323Z,12.79
2024-02-26T15:17:49.629Z,13.17
2024-02-26T15:20:27.126Z,13.41
2024-02-26T15:23:00.754Z,13.54
2024-02-26T15:25:35.739Z,12.85
2024-02-26T15:28:13.990Z,12.79
2024-02-26T15:30:53.630Z,12.81
2024-02-26T15:33:29.735Z,13.17
2024-02-26T15:36:07.013Z,13.25
2024-02-26T15:38:41.657Z,13.34
2024-02-26T15:41:19.024Z,13.16
2024-02-26T15:43:53.356Z,12.76
2024-02-26T15:46:26.268Z,12.55
2024-02-26T15:48:59.944Z,12.90
2024-02-26T15:51:36.988Z,12.66
2024-02-26T15:54:10.115Z,12.54
2024-02-26T15:56:46.120Z,12.65
2024-02-26T15:59:19.202Z,12.87
2024-02-26T16:01:52.194Z,12.75
2024-02-26T16:04:28.610Z,12.80
2024-02-26T16:07:10.628Z,12.56
2024-02-26T16:09:44.499Z,12.97
2024-02-26T16:12:23.619Z,12.76
2024-02-26T16:14:57.414Z,12.50
2024-02-26T16:17:33.258Z,12.10
2024-02-26T16:20:10.373Z,12.60
2024-02-26T16:22:45.772Z,12.38
2024-02-26T16:25:19.441Z,12.34
2024-02-26T16:27:52.001Z,12.20
2024-02-26T16:30:29.830Z,12.16
2024-02-26T16:33:02.863Z,11.76
2024-02-26T16:35:36.710Z,12.23
2024-02-26T16:38:11.633Z,11.99
2024-02-26T16:40:45.475Z,12.00
2024-02-26T16:43:17.802Z,12.43
2024-02-26T16:45:50.368Z,12.14
2024-02-26T16:48:22.699Z,12.43
2024-02-26T16:50:55.476Z,12.10
2024-02-26T16:53:32.148Z,12.19
2024-02-26T16:56:05.589Z,11.85
2024-02-26T16:58:38.155Z,11.95
2024-02-26T17:01:13.046Z,11.67
2024-02-26T17:03:47.996Z,11.92
2024-02-26T17:06:25.301Z,11.97
2024-02-26T17:09:27.070Z,11.75
2024-02-26T17:12:02.025Z,12.13
2024-02-26T17:14:34.720Z,11.76
2024-02-26T17:17:10.076Z,11.84
2024-02-26T17:19:43.533Z,11.94
2024-02-26T17:22:21.111Z,11.22
2024-02-26T17:24:56.161Z,11.24
2024-02-26T17:27:29.930Z,11.70
2024-02-26T17:30:06.184Z,11.56
2024-02-26T17:32:42.732Z,11.87
2024-02-26T17:35:18.760Z,11.48
2024-02-26T17:37:54.118Z,11.69
2024-02-26T17:40:29.557Z,11.51
2024-02-26T17:43:03.757Z,11.46
2024-02-26T17:45:37.055Z,10.88
2024-02-26T17:48:10.886Z,11.59
2024-02-26T17:50:43.275Z,11.38
2024-02-26T17:53:16.312Z,11.22
2024-02-26T17:55:51.399Z,11.25
2024-02-26T17:58:24.316Z,11.04
2024-02-26T18:00:56.659Z,10.99
2024-02-26T18:03:30.428Z,10.79
2024-02-26T18:06:03.015Z,11.03
2024-02-26T18:08:36.706Z,10.97
2024-02-26T18:11:14.238Z,11.07
2024-02-26T18:13:47.190Z,10.93
2024-02-26T18:16:19.831Z,10.70
2024-02-26T18:18:52.843Z,11.07
2024-02-26T18:21:27.379Z,11.12
2024-02-26T18:24:00.825Z,10.55
2024-02-26T18:26:36.471Z,10.70
2024-02-26T18:29:09.553Z,11.12
2024-02-26T18:31:42.203Z,10.91
2024-02-26T18:34:15.416Z,10.75
2024-02-26T18:36:48.836Z,10.98
2024-02-26T18:39:30.940Z,11.21
2024-02-26T18:42:08.821Z,11.17
2024-02-26T18:44:42.229Z,11.05
2024-02-26T18:47:14.920Z,10.80
2024-02-26T18:49:50.720Z,11.05
2024-02-26T18:52:24.033Z,10.01
2024-02-26T18:54:58.959Z,10.62
2024-02-26T18:57:34.492Z,10.95
2024-02-26T19:00:08.793Z,10.67
2024-02-26T19:02:41.522Z,11.05
2024-02-26T19:05:14.760Z,10.13
2024-02-26T19:07:47.482Z,9.78
2024-02-26T19:10:22.125Z,10.38
2024-02-26T19:12:59.594Z,10.61
2024-02-26T19:15:34.271Z,9.92
2024-02-26T19:18:07.879Z,10.14
2024-02-26T19:20:41.104Z,10.60
2024-02-26T19:26:06.029Z,10.27
2024-02-26T19:28:45.034Z,10.34
2024-02-26T19:31:19.670Z,10.19
2024-02-26T19:33:52.931Z,10.42
2024-02-26T19:36:26.339Z,9.78
2024-02-26T19:39:00.270Z,9.61
2024-02-26T19:41:56.096Z,9.98
2024-02-26T19:44:36.916Z,10.14
2024-02-26T19:47:12.038Z,10.19
2024-02-26T19:49:50.468Z,10.30
2024-02-26T19:52:26.394Z,9.37
2024-02-26T19:54:59.277Z,9.93
2024-02-26T19:57:32.633Z,9.85
2024-02-26T20:00:09.119Z,9.51
2024-02-26T20:02:42.285Z,8.82
2024-02-26T20:05:15.036Z,9.42
2024-02-26T20:07:47.993Z,9.05
2024-02-26T20:10:21.795Z,9.55
2024-02-26T20:12:59.691Z,9.37
2024-02-26T20:15:35.482Z,9.58
2024-02-26T20:18:18.635Z,9.82
2024-02-26T20:21:05.563Z,9.34
2024-02-26T20:23:38.682Z,9.81
2024-02-26T20:26:12.534Z,9.55
2024-02-26T20:28:45.553Z,9.63
2024-02-26T20:31:20.788Z,9.32
2024-02-26T20:33:54.427Z,9.33
2024-02-26T20:36:30.162Z,9.76
2024-02-26T20:39:08.057Z,9.73
2024-02-26T20:41:49.910Z,9.32
2024-02-26T20:44:27.988Z,9.56
2024-02-26T20:47:10.913Z,9.04
2024-02-26T20:49:45.776Z,9.46
2024-02-26T20:52:27.948Z,9.37
2024-02-26T20:55:10.990Z,9.21
2024-02-26T20:57:43.670Z,9.03
2024-02-26T21:00:17.766Z,9.05
2024-02-26T21:02:53.051Z,9.27
2024-02-26T21:05:26.632Z,8.96
2024-02-26T21:07:59.432Z,8.99
2024-02-26T21:10:43.324Z,9.18
2024-02-26T21:13:16.032Z,8.31
2024-02-26T21:15:49.287Z,8.97
2024-02-26T21:18:51.747Z,8.70
2024-02-26T21:21:29.956Z,8.96
2024-02-26T21:24:03.944Z,7.85
2024-02-26T21:26:37.495Z,8.78
2024-02-26T21:29:10.112Z,8.72
2024-02-26T21:31:44.270Z,7.91
2024-02-26T21:34:19.366Z,8.48
2024-02-26T21:36:55.109Z,7.85
2024-02-26T21:42:31.935Z,8.10
2024-02-26T21:45:07.690Z,8.52
2024-02-26T21:47:46.708Z,8.82
2024-02-26T21:50:20.440Z,8.29
2024-02-26T21:53:02.835Z,8.11
2024-02-26T21:55:37.921Z,8.40
2024-02-26T21:58:11.151Z,7.96
2024-02-26T22:00:44.639Z,8.54
2024-02-26T22:03:17.952Z,7.81
2024-02-26T22:05:52.430Z,7.71
2024-02-26T22:08:35.234Z,8.24
2024-02-26T22:11:08.819Z,8.08
2024-02-26T22:13:42.041Z,7.65
2024-02-26T22:16:14.673Z,8.47
2024-02-26T22:18:47.818Z,8.26
2024-02-26T22:21:20.529Z,8.19
2024-02-26T22:23:56.432Z,8.37
2024-02-26T22:40:34.508Z,8.09
2024-02-26T22:43:12.513Z,8.39
2024-02-26T22:45:47.410Z,8.19
2024-02-26T22:48:36.866Z,8.20
2024-02-26T22:51:20.752Z,8.40
2024-02-26T22:53:59.582Z,7.74
2024-02-26T22:56:35.029Z,8.12
2024-02-26T22:59:08.590Z,8.51
2024-02-26T23:01:42.210Z,8.30
2024-02-26T23:13:43.286Z,8.36
2024-02-26T23:16:18.268Z,8.10
2024-02-26T23:18:51.565Z,7.96
2024-02-26T23:21:26.867Z,7.53
2024-02-26T23:23:59.472Z,8.16
2024-02-26T23:26:32.404Z,7.65
2024-02-26T23:29:07.231Z,8.06
2024-02-26T23:31:40.392Z,8.20
2024-02-26T23:34:12.974Z,8.14
2024-02-26T23:36:46.641Z,7.38
2024-02-26T23:39:19.055Z,7.89
2024-02-26T23:41:52.004Z,7.52
2024-02-26T23:44:27.003Z,8.23
2024-02-26T23:46:59.834Z,7.30
2024-02-26T23:49:34.153Z,7.70
2024-02-26T23:52:10.281Z,7.90
2024-02-26T23:54:43.102Z,7.91
2024-02-26T23:57:15.894Z,7.97
2024-02-26T23:59:50.888Z,7.44
